コロンボ の空港の天気 - METARとTAF

バンダラナイケ国際空港 ( VCBI / CMB ) - スリランカ コロンボ
飛行場実況気象(Metar)
観測時間09/25 05:40 IST (09/25 00:10 UTC)
風向・風速西南西 3m/s
視程10km以上
天気現象
全天の8割程度の雲 雲底高度 490m
気温28℃
湿度84%
気圧1008hPa
METARVCBI 250010Z 25006KT 220V290 9999 BKN016 28/25 Q1008 NOSIG
過去の天気等 Google飛行場航空写真 Wunderground天気予報

過去48時間のMETAR

飛行場予報(TAF)
発表時間: 9/25 04:30 IST (9/24 23:00 UTC)
予報対象時間: 25日5時 IST ~ 26日11時 IST
風向・風速西 6m/s
視程10km以上
全天の4割程度の雲 雲底高度 520m
25日8時 IST ~ 25日11時 IST に 確率 30% で一時的に
視程7000m
TAF VCBI 242300Z 2500/2606 26012KT 9999 SCT017 TX31/2507Z TN25/2600Z
PROB30 TEMPO 2503/2506 7000 -TSRA/SHRA BKN016 FEW020CB